Time;durP1;ratioP1;P1;durP2;ratioP2;P2;SDS_P1;SDS_P2;PMS_P1;PMS_P2;Temp;Humidity;BMP_temperature;BMP_pressure;BME280_temperature;BME280_humidity;BME280_pressure;Samples;Min_cycle;Max_cycle;Signal;HPM_P1;HPM_P2
2023/04/27 00:00:34;;;;;;;1.70;1.60;;;;;;;21.33;25.15;100911.44;4567607;27;20039;-60
2023/04/27 00:02:45;;;;;;;1.88;1.70;;;;;;;21.31;25.22;100916.72;4568026;27;20280;-60
2023/04/27 00:04:56;;;;;;;1.95;1.80;;;;;;;21.33;25.43;100908.56;4568470;27;20024;-60
2023/04/27 00:07:07;;;;;;;1.67;1.58;;;;;;;21.31;25.37;100905.22;4569186;27;20614;-60
2023/04/27 00:09:17;;;;;;;2.22;1.70;;;;;;;21.31;25.38;100902.34;4568749;27;20217;-60
2023/04/27 00:11:28;;;;;;;2.35;1.63;;;;;;;21.31;25.59;100910.16;4568523;27;20046;-60
2023/04/27 00:13:38;;;;;;;1.85;1.75;;;;;;;21.32;25.41;100906.06;4566198;27;20040;-60
2023/04/27 00:15:49;;;;;;;1.80;1.60;;;;;;;21.31;25.41;100913.84;4569539;27;20071;-60
2023/04/27 00:18:00;;;;;;;1.92;1.70;;;;;;;21.30;25.23;100903.56;4568184;27;20453;-60
2023/04/27 00:20:11;;;;;;;1.80;1.70;;;;;;;21.25;25.24;100903.81;4566644;27;20553;-60
2023/04/27 00:22:21;;;;;;;2.65;1.80;;;;;;;21.30;25.23;100914.22;4568059;27;20397;-60
2023/04/27 00:24:32;;;;;;;1.65;1.50;;;;;;;21.28;25.10;100914.56;4566341;27;20044;-60
2023/04/27 00:26:42;;;;;;;1.85;1.70;;;;;;;21.27;25.45;100904.31;4569466;27;20040;-60
2023/04/27 00:28:52;;;;;;;1.90;1.70;;;;;;;21.29;25.26;100913.41;4567316;27;20111;-61
2023/04/27 00:31:03;;;;;;;1.70;1.60;;;;;;;21.30;25.16;100912.19;4567573;27;20533;-60
2023/04/27 00:33:15;;;;;;;1.48;1.38;;;;;;;21.26;25.13;100911.25;4536368;27;20049;-60
2023/04/27 00:35:26;;;;;;;1.73;1.60;;;;;;;21.30;25.55;100923.66;4568135;27;20566;-60
2023/04/27 00:37:36;;;;;;;1.67;1.58;;;;;;;21.26;25.24;100908.38;4567278;27;20036;-60
2023/04/27 00:39:47;;;;;;;1.52;1.38;;;;;;;21.28;25.47;100919.50;4567192;27;20035;-60
2023/04/27 00:41:59;;;;;;;1.95;1.60;;;;;;;21.26;25.34;100908.38;4551709;27;20024;-60
2023/04/27 00:44:10;;;;;;;1.60;1.50;;;;;;;21.28;25.52;100917.44;4551835;27;20732;-60
2023/04/27 00:46:21;;;;;;;1.85;1.65;;;;;;;21.26;25.53;100919.88;4547559;28;20310;-60
2023/04/27 00:48:31;;;;;;;1.50;1.40;;;;;;;21.25;25.32;100915.31;4568471;27;20075;-60
2023/04/27 00:50:42;;;;;;;1.60;1.50;;;;;;;21.24;25.40;100918.53;4551627;27;20044;-61
2023/04/27 00:52:52;;;;;;;1.70;1.60;;;;;;;21.26;25.27;100927.63;4568142;27;20028;-60
2023/04/27 00:55:03;;;;;;;1.70;1.60;;;;;;;21.23;25.34;100920.56;4567769;27;20037;-60
2023/04/27 00:57:15;;;;;;;2.13;1.60;;;;;;;21.21;25.53;100916.41;4567874;27;20029;-60
2023/04/27 00:59:27;;;;;;;1.83;1.67;;;;;;;21.23;25.21;100920.56;4564905;27;20044;-60
2023/04/27 01:01:38;;;;;;;2.03;1.70;;;;;;;21.21;25.65;100923.00;4553002;27;20454;-60
2023/04/27 01:03:48;;;;;;;1.98;1.75;;;;;;;21.25;25.31;100928.84;4550084;27;20043;-60
2023/04/27 01:06:00;;;;;;;2.13;1.77;;;;;;;21.21;25.33;100925.88;4566002;27;20806;-60
2023/04/27 01:08:10;;;;;;;2.03;1.83;;;;;;;21.21;25.75;100934.47;4549221;27;20037;-60
2023/04/27 01:10:21;;;;;;;1.75;1.50;;;;;;;21.21;25.72;100928.72;4567465;27;20043;-60
2023/04/27 01:12:32;;;;;;;1.90;1.60;;;;;;;21.09;25.56;100917.25;4558485;27;20090;-60
2023/04/27 01:14:42;;;;;;;1.67;1.58;;;;;;;21.20;25.74;100931.97;4570498;27;20039;-60
2023/04/27 01:16:52;;;;;;;2.10;1.90;;;;;;;21.19;25.69;100934.00;4551588;27;20044;-60
2023/04/27 01:19:03;;;;;;;2.05;1.80;;;;;;;21.17;25.91;100938.44;4569517;27;20020;-59
2023/04/27 01:21:14;;;;;;;1.90;1.70;;;;;;;21.23;25.54;100942.72;4554850;27;20036;-60
2023/04/27 01:23:25;;;;;;;1.88;1.60;;;;;;;21.21;25.84;100948.81;4553513;27;20028;-60
2023/04/27 01:25:35;;;;;;;2.00;1.80;;;;;;;21.18;26.06;100946.69;4570101;27;20299;-60
2023/04/27 01:27:46;;;;;;;2.05;1.80;;;;;;;21.20;25.68;100952.06;4572623;27;20492;-60
2023/04/27 01:29:56;;;;;;;1.90;1.70;;;;;;;21.18;25.90;100952.44;4555200;28;20064;-59
2023/04/27 01:32:07;;;;;;;2.00;1.80;;;;;;;21.21;26.09;100960.31;4550970;27;20039;-59
2023/04/27 01:34:18;;;;;;;2.25;1.90;;;;;;;21.17;26.00;100949.91;4555483;27;20045;-59
2023/04/27 01:36:31;;;;;;;1.95;1.80;;;;;;;21.18;25.58;100958.16;4556307;27;20037;-59
2023/04/27 01:38:42;;;;;;;2.03;1.83;;;;;;;21.17;25.89;100961.41;4569556;27;20134;-60
2023/04/27 01:41:00;;;;;;;1.90;1.70;;;;;;;21.15;25.89;100958.91;4569852;27;20106;-60
2023/04/27 01:43:11;;;;;;;1.70;1.60;;;;;;;21.19;25.77;100967.59;4571121;27;20622;-60
2023/04/27 01:45:21;;;;;;;1.55;1.45;;;;;;;21.17;26.13;100962.22;4554539;27;20029;-60
2023/04/27 01:47:32;;;;;;;1.83;1.67;;;;;;;21.17;26.24;100967.16;4570812;27;20043;-59
2023/04/27 01:49:42;;;;;;;1.80;1.67;;;;;;;21.15;26.31;100970.38;4553997;27;20041;-60
2023/04/27 01:51:53;;;;;;;1.50;1.40;;;;;;;21.16;26.24;100969.16;4567879;27;20032;-60
2023/04/27 01:54:03;;;;;;;1.95;1.52;;;;;;;21.16;26.30;100972.03;4567698;27;20787;-60
2023/04/27 01:56:14;;;;;;;1.52;1.42;;;;;;;21.16;26.16;100974.91;4569572;27;20028;-60
2023/04/27 01:58:25;;;;;;;1.95;1.60;;;;;;;21.18;26.34;100980.28;4556145;27;20035;-60
2023/04/27 02:00:36;;;;;;;1.90;1.50;;;;;;;21.14;26.46;100985.06;4542487;28;20605;-60
2023/04/27 02:02:47;;;;;;;1.98;1.60;;;;;;;21.16;26.84;100992.13;4555994;27;20147;-60
2023/04/27 02:04:57;;;;;;;1.70;1.60;;;;;;;21.13;26.54;100984.25;4568528;27;20036;-60
2023/04/27 02:07:10;;;;;;;1.70;1.60;;;;;;;21.14;26.50;100976.44;4570957;27;20029;-60
2023/04/27 02:09:20;;;;;;;2.35;1.75;;;;;;;21.15;26.63;100993.34;4569426;27;20844;-59
2023/04/27 02:11:31;;;;;;;1.80;1.50;;;;;;;21.15;26.54;100993.34;4554182;27;20036;-59
2023/04/27 02:13:41;;;;;;;1.65;1.55;;;;;;;21.12;26.84;100988.28;4553846;27;20528;-63
2023/04/27 02:15:52;;;;;;;2.05;1.83;;;;;;;21.14;26.46;100985.91;4559550;27;20058;-59
2023/04/27 02:18:03;;;;;;;1.80;1.52;;;;;;;21.12;26.31;100991.16;4555213;27;20036;-59
2023/04/27 02:20:14;;;;;;;1.83;1.73;;;;;;;21.11;26.55;100991.53;4534713;27;20048;-59
2023/04/27 02:22:24;;;;;;;1.70;1.60;;;;;;;21.11;26.26;100995.25;4570657;27;20162;-59
2023/04/27 02:24:35;;;;;;;1.95;1.75;;;;;;;21.11;26.29;100998.13;4568508;27;20025;-59
2023/04/27 02:26:46;;;;;;;2.67;1.88;;;;;;;21.13;26.12;101009.22;4570287;27;20040;-59
2023/04/27 02:28:56;;;;;;;2.05;1.70;;;;;;;21.13;26.45;101001.47;4551198;27;20488;-59
2023/04/27 02:31:07;;;;;;;1.95;1.80;;;;;;;21.10;26.50;101004.22;4569485;27;20169;-59
2023/04/27 02:33:17;;;;;;;1.73;1.63;;;;;;;21.11;26.60;100994.41;4571443;27;20024;-59
2023/04/27 02:35:27;;;;;;;1.83;1.60;;;;;;;21.11;26.24;100995.25;4542943;27;20082;-60
2023/04/27 02:37:38;;;;;;;1.65;1.55;;;;;;;21.12;26.53;100996.09;4568591;27;20032;-59
2023/04/27 02:39:48;;;;;;;1.88;1.70;;;;;;;21.10;26.32;100996.44;4542884;27;20040;-59
2023/04/27 02:42:00;;;;;;;2.00;1.80;;;;;;;21.09;26.59;100993.94;4558890;27;20029;-59
2023/04/27 02:44:11;;;;;;;2.60;2.00;;;;;;;21.09;26.53;101003.38;4541907;27;20563;-60
2023/04/27 02:46:22;;;;;;;1.95;1.80;;;;;;;21.05;26.42;100985.22;4553341;28;20024;-59
2023/04/27 02:48:32;;;;;;;2.42;1.90;;;;;;;21.10;26.48;100990.72;4542501;27;20040;-60
2023/04/27 02:50:44;;;;;;;1.63;1.52;;;;;;;21.07;26.53;100997.19;4567574;27;20043;-59
2023/04/27 02:52:54;;;;;;;1.80;1.60;;;;;;;21.09;26.71;100994.75;4543049;27;20027;-59
2023/04/27 02:55:05;;;;;;;1.60;1.50;;;;;;;21.06;26.69;100991.81;4568935;27;20067;-59
2023/04/27 02:57:15;;;;;;;2.00;1.80;;;;;;;21.06;26.63;100986.88;4553748;28;20032;-59
2023/04/27 02:59:26;;;;;;;1.52;1.40;;;;;;;21.03;27.04;100990.47;4554935;27;20051;-60
2023/04/27 03:01:36;;;;;;;1.55;1.30;;;;;;;21.06;26.63;100991.81;4552514;27;20045;-60
2023/04/27 03:03:47;;;;;;;1.40;1.30;;;;;;;21.02;26.83;100987.97;4554495;27;20033;-59
2023/04/27 03:05:57;;;;;;;1.60;1.50;;;;;;;21.07;26.69;100990.59;4568903;27;20367;-60
2023/04/27 03:08:08;;;;;;;1.80;1.70;;;;;;;21.04;26.87;100979.84;4554261;27;20063;-60
2023/04/27 03:10:19;;;;;;;1.90;1.77;;;;;;;21.07;26.61;100991.44;4553576;27;20044;-59
2023/04/27 03:12:29;;;;;;;1.40;1.30;;;;;;;21.06;26.43;100986.88;4568001;27;20415;-59
2023/04/27 03:14:43;;;;;;;1.67;1.58;;;;;;;21.07;26.48;100984.84;4549993;27;20051;-60
2023/04/27 03:16:54;;;;;;;1.55;1.30;;;;;;;21.01;26.38;100969.09;4567658;27;20043;-59
2023/04/27 03:19:06;;;;;;;1.35;1.20;;;;;;;21.06;26.25;100977.44;4568444;27;20028;-59
2023/04/27 03:21:16;;;;;;;1.30;1.20;;;;;;;21.04;26.20;100974.09;4552406;27;20099;-59
2023/04/27 03:23:26;;;;;;;1.30;1.20;;;;;;;21.01;26.64;100964.16;4569785;27;20071;-60
2023/04/27 03:25:37;;;;;;;1.67;1.40;;;;;;;21.02;26.26;100962.97;4553686;27;20082;-60
2023/04/27 03:27:47;;;;;;;1.30;1.20;;;;;;;21.03;26.01;100967.50;4567933;27;20814;-60
2023/04/27 03:29:58;;;;;;;1.20;1.10;;;;;;;21.04;25.83;100971.22;4553654;27;20107;-59
2023/04/27 03:32:08;;;;;;;1.15;1.02;;;;;;;21.03;25.89;100981.00;4568094;27;20090;-60
2023/04/27 03:34:20;;;;;;;1.45;1.20;;;;;;;20.98;26.11;100959.16;4568482;27;20114;-60
2023/04/27 03:36:31;;;;;;;2.33;1.40;;;;;;;21.00;25.50;100973.97;4567140;27;20202;-59
2023/04/27 03:38:41;;;;;;;1.77;1.13;;;;;;;21.03;25.37;100979.00;4550616;27;20041;-60
2023/04/27 03:40:52;;;;;;;1.30;1.20;;;;;;;21.01;25.33;100978.50;4569373;27;20044;-59
2023/04/27 03:43:03;;;;;;;1.58;1.20;;;;;;;21.01;25.45;100972.78;4567216;27;20028;-60
2023/04/27 03:45:15;;;;;;;1.30;1.20;;;;;;;20.99;25.58;100972.31;4552608;27;20595;-59
2023/04/27 03:47:25;;;;;;;1.35;1.10;;;;;;;21.03;25.37;100976.13;4540682;27;20886;-59
2023/04/27 03:49:36;;;;;;;1.88;1.30;;;;;;;21.02;25.24;100977.34;4552921;27;20483;-60
2023/04/27 03:51:46;;;;;;;1.38;1.27;;;;;;;21.00;25.48;100973.13;4552023;28;20109;-59
2023/04/27 03:53:59;;;;;;;1.27;1.00;;;;;;;20.98;25.46;100973.50;4565767;27;20075;-60
2023/04/27 03:56:09;;;;;;;1.20;1.10;;;;;;;21.01;25.41;100990.00;4540206;27;20033;-59
2023/04/27 03:58:20;;;;;;;1.20;1.10;;;;;;;20.98;25.50;100981.28;4552882;27;20032;-59
2023/04/27 04:00:51;;;;;;;1.40;1.30;;;;;;;20.99;25.33;100983.78;4550538;27;20079;-59
2023/04/27 04:03:02;;;;;;;1.15;1.08;;;;;;;20.96;25.45;100977.91;4565063;27;20119;-59
2023/04/27 04:05:14;;;;;;;1.30;1.20;;;;;;;20.97;25.39;100979.59;4548573;27;20876;-59
2023/04/27 04:07:24;;;;;;;1.35;1.10;;;;;;;20.95;25.23;100982.78;4554062;27;20036;-60
2023/04/27 04:09:34;;;;;;;1.30;1.13;;;;;;;20.98;25.17;100981.28;4566950;27;20024;-59
2023/04/27 04:11:45;;;;;;;3.05;1.30;;;;;;;20.99;25.35;100983.78;4550518;27;20094;-59
2023/04/27 04:13:58;;;;;;;1.38;1.20;;;;;;;20.99;25.00;100980.06;4566496;27;20024;-59
2023/04/27 04:16:09;;;;;;;1.65;1.10;;;;;;;20.97;25.12;100991.91;4567053;27;20037;-59
2023/04/27 04:18:20;;;;;;;1.10;1.00;;;;;;;20.97;24.89;100991.91;4567185;27;20873;-59
2023/04/27 04:20:33;;;;;;;1.23;1.13;;;;;;;20.98;24.65;101002.19;4566127;27;20086;-60
2023/04/27 04:22:44;;;;;;;1.17;1.08;;;;;;;20.98;24.74;101010.81;4535391;27;20386;-59
2023/04/27 04:24:55;;;;;;;1.40;1.20;;;;;;;20.98;24.46;101010.81;4546675;27;20066;-59
2023/04/27 04:27:06;;;;;;;1.52;1.20;;;;;;;20.97;24.57;101005.41;4564132;27;20490;-59
2023/04/27 04:29:16;;;;;;;1.25;1.17;;;;;;;20.96;25.01;101000.84;4552322;27;20061;-60
2023/04/27 04:31:28;;;;;;;1.30;1.20;;;;;;;20.98;24.83;101021.47;4565384;27;20032;-59
2023/04/27 04:33:38;;;;;;;1.30;1.20;;;;;;;20.97;24.76;101019.78;4567066;27;20028;-59
2023/04/27 04:35:50;;;;;;;1.83;1.20;;;;;;;20.93;24.94;101019.63;4551775;27;20027;-60
2023/04/27 04:38:01;;;;;;;1.40;1.30;;;;;;;20.96;24.81;101018.06;4564991;27;20094;-59
2023/04/27 04:40:12;;;;;;;1.40;1.30;;;;;;;20.97;24.61;101020.63;4552782;27;20583;-59
2023/04/27 04:42:23;;;;;;;1.67;1.30;;;;;;;20.97;25.13;101037.00;4547974;28;20125;-59
2023/04/27 04:44:34;;;;;;;1.27;1.17;;;;;;;20.95;24.99;101028.72;4548274;27;20043;-59
2023/04/27 04:46:46;;;;;;;1.52;1.30;;;;;;;20.96;25.17;101029.56;4566064;27;20038;-60
2023/04/27 04:48:56;;;;;;;0.95;0.90;;;;;;;20.94;24.98;101024.19;4553728;27;20027;-59
2023/04/27 04:51:07;;;;;;;1.25;1.10;;;;;;;20.95;25.00;101037.31;4554652;27;20045;-62
2023/04/27 04:53:18;;;;;;;1.10;1.00;;;;;;;20.94;25.01;101027.03;4553981;28;20060;-63
2023/04/27 04:55:28;;;;;;;1.00;1.00;;;;;;;20.94;25.22;101029.91;4571740;27;20108;-60
2023/04/27 04:57:39;;;;;;;0.90;0.90;;;;;;;20.91;25.48;101032.66;4547426;27;20039;-60
2023/04/27 04:59:49;;;;;;;1.20;1.10;;;;;;;20.92;25.25;101029.44;4570651;27;20044;-59
2023/04/27 05:02:00;;;;;;;1.10;1.00;;;;;;;20.83;25.54;101008.63;4570902;27;20058;-59
2023/04/27 05:04:10;;;;;;;1.30;1.15;;;;;;;20.88;25.85;101019.03;4569775;27;20070;-60
2023/04/27 05:06:21;;;;;;;1.30;1.20;;;;;;;20.91;25.78;101027.75;4570192;27;20047;-60
2023/04/27 05:08:31;;;;;;;1.63;1.40;;;;;;;20.92;25.95;101031.44;4570830;27;20617;-60
2023/04/27 05:10:48;;;;;;;1.27;1.17;;;;;;;20.92;26.17;101040.06;4570023;27;20036;-59
2023/04/27 05:12:58;;;;;;;1.98;1.27;;;;;;;20.90;26.10;101034.69;4570727;27;20043;-59
2023/04/27 05:15:09;;;;;;;1.58;1.33;;;;;;;20.91;26.11;101035.53;4569597;27;20039;-59
2023/04/27 05:17:20;;;;;;;1.40;1.30;;;;;;;20.91;25.81;101032.66;4554114;27;20625;-59
2023/04/27 05:19:30;;;;;;;2.28;1.30;;;;;;;20.91;26.26;101033.50;4569387;27;20119;-59
2023/04/27 05:21:40;;;;;;;2.13;1.40;;;;;;;20.85;26.42;101034.94;4570343;27;20036;-59
2023/04/27 05:23:51;;;;;;;1.20;1.10;;;;;;;20.90;26.13;101045.34;4569095;27;20072;-59
2023/04/27 05:26:10;;;;;;;1.20;1.10;;;;;;;20.90;26.45;101048.22;4553118;27;20391;-59
2023/04/27 05:28:20;;;;;;;1.25;1.15;;;;;;;20.92;26.24;101045.81;4543776;28;20037;-61
2023/04/27 05:30:31;;;;;;;1.30;1.20;;;;;;;20.88;26.50;101045.72;4568571;27;20040;-59
2023/04/27 05:32:42;;;;;;;1.52;1.33;;;;;;;20.90;26.53;101049.03;4571010;27;20173;-61
2023/04/27 05:34:52;;;;;;;1.50;1.38;;;;;;;20.88;26.87;101042.84;4554278;27;20087;-59
2023/04/27 05:37:03;;;;;;;1.50;1.20;;;;;;;20.88;27.24;101051.44;4553303;27;20108;-59
2023/04/27 05:39:14;;;;;;;1.95;1.60;;;;;;;20.89;27.49;101053.09;4568196;27;20587;-59
2023/04/27 05:41:24;;;;;;;1.60;1.50;;;;;;;20.87;27.65;101052.63;4569752;27;20427;-59
2023/04/27 05:43:36;;;;;;;1.55;1.45;;;;;;;20.89;27.76;101063.75;4541030;27;20111;-59
2023/04/27 05:45:47;;;;;;;1.58;1.48;;;;;;;20.88;27.66;101060.06;4551508;27;20024;-59
2023/04/27 05:47:57;;;;;;;1.45;1.35;;;;;;;20.73;27.43;101044.38;4554168;27;20064;-59
2023/04/27 05:50:08;;;;;;;1.52;1.42;;;;;;;20.87;27.56;101061.22;4568098;27;20042;-58
2023/04/27 05:52:19;;;;;;;1.50;1.35;;;;;;;20.88;27.47;101059.19;4550495;28;20037;-59
2023/04/27 05:54:29;;;;;;;1.63;1.52;;;;;;;20.87;27.40;101072.69;4569783;27;20093;-59
2023/04/27 05:56:40;;;;;;;1.88;1.58;;;;;;;20.88;27.28;101074.41;4569832;27;20565;-58
2023/04/27 05:58:50;;;;;;;1.50;1.40;;;;;;;20.83;27.57;101066.84;4551000;27;20141;-59
2023/04/27 06:01:02;;;;;;;1.70;1.60;;;;;;;20.86;27.96;101071.03;4568348;27;20104;-59
2023/04/27 06:03:13;;;;;;;1.67;1.58;;;;;;;20.90;27.97;101074.03;4570422;27;20557;-59
2023/04/27 06:05:23;;;;;;;1.65;1.50;;;;;;;20.84;28.49;101073.44;4570958;27;20396;-59
2023/04/27 06:07:33;;;;;;;1.60;1.48;;;;;;;20.86;28.54;101082.53;4568147;27;20037;-59
2023/04/27 06:09:44;;;;;;;1.70;1.60;;;;;;;20.85;28.37;101069.38;4552055;28;20056;-59
2023/04/27 06:11:54;;;;;;;1.73;1.45;;;;;;;20.86;28.61;101073.91;4569350;27;20043;-59
2023/04/27 06:14:05;;;;;;;2.22;1.80;;;;;;;20.88;28.90;101074.41;4570034;27;20075;-61
2023/04/27 06:16:15;;;;;;;1.98;1.75;;;;;;;20.83;28.94;101068.91;4545027;27;20501;-59
2023/04/27 06:18:26;;;;;;;1.50;1.40;;;;;;;20.84;28.22;101079.16;4542104;27;20085;-59
2023/04/27 06:20:36;;;;;;;1.95;1.73;;;;;;;20.86;27.99;101082.53;4569112;27;20047;-59
2023/04/27 06:22:47;;;;;;;2.05;1.50;;;;;;;20.84;27.96;101079.16;4568620;27;20070;-59
2023/04/27 06:24:57;;;;;;;1.90;1.70;;;;;;;20.86;27.72;101076.78;4553751;27;20036;-58
2023/04/27 06:27:08;;;;;;;1.98;1.63;;;;;;;20.85;27.45;101074.28;4568854;27;20139;-59
2023/04/27 06:29:18;;;;;;;1.75;1.58;;;;;;;20.85;27.94;101075.13;4569028;27;20028;-59
2023/04/27 06:31:30;;;;;;;1.70;1.60;;;;;;;20.80;28.01;101072.47;4569741;27;20501;-59
2023/04/27 06:33:40;;;;;;;1.60;1.48;;;;;;;20.86;27.52;101088.25;4569832;27;20031;-58
2023/04/27 06:35:50;;;;;;;2.25;1.63;;;;;;;20.85;27.97;101089.47;4572195;27;20028;-59
2023/04/27 06:38:01;;;;;;;1.70;1.60;;;;;;;20.86;28.13;101091.13;4569333;27;20071;-59
2023/04/27 06:40:12;;;;;;;1.60;1.50;;;;;;;20.83;28.01;101076.66;4569464;27;20447;-59
2023/04/27 06:42:22;;;;;;;2.03;1.45;;;;;;;20.84;27.83;101084.91;4550147;27;20047;-59
2023/04/27 06:44:33;;;;;;;1.65;1.40;;;;;;;20.83;27.76;101088.97;4568598;27;20040;-58
2023/04/27 06:46:43;;;;;;;1.30;1.20;;;;;;;20.85;27.66;101100.94;4569237;27;20030;-59
2023/04/27 06:48:54;;;;;;;1.58;1.20;;;;;;;20.83;27.52;101099.59;4568427;27;20086;-59
2023/04/27 06:51:04;;;;;;;1.27;1.15;;;;;;;20.71;27.28;101080.34;4553899;27;20122;-59
2023/04/27 06:53:16;;;;;;;1.20;1.10;;;;;;;20.82;27.49;101098.75;4566949;27;20089;-59
2023/04/27 06:55:26;;;;;;;1.73;1.25;;;;;;;20.78;27.28;101094.94;4568344;27;20666;-59
2023/04/27 06:57:37;;;;;;;1.48;1.30;;;;;;;20.83;27.23;101097.59;4569014;27;20066;-59
2023/04/27 06:59:47;;;;;;;1.40;1.08;;;;;;;20.83;27.67;101088.13;4570474;27;20052;-59
2023/04/27 07:01:57;;;;;;;1.30;1.20;;;;;;;20.82;27.46;101092.19;4569885;27;20038;-59
2023/04/27 07:04:08;;;;;;;1.40;1.30;;;;;;;20.80;27.38;101092.56;4567376;27;20643;-59
2023/04/27 07:06:18;;;;;;;1.45;1.05;;;;;;;20.82;27.75;101093.00;4570311;27;20071;-60
2023/04/27 07:08:29;;;;;;;1.77;1.20;;;;;;;20.82;28.08;101093.00;4569784;27;20451;-59
2023/04/27 07:10:40;;;;;;;1.80;1.40;;;;;;;20.84;27.28;101104.97;4569259;27;20035;-59
2023/04/27 07:12:50;;;;;;;1.33;1.20;;;;;;;20.80;27.99;101095.44;4567603;27;20641;-60
2023/04/27 07:15:03;;;;;;;1.25;1.00;;;;;;;20.83;27.97;101106.19;4568464;27;20097;-59
2023/04/27 07:17:13;;;;;;;1.20;1.10;;;;;;;20.83;27.59;101105.34;4568451;27;20121;-58
2023/04/27 07:19:23;;;;;;;1.15;1.00;;;;;;;20.80;28.35;101096.25;4568653;27;20065;-60
2023/04/27 07:21:34;;;;;;;1.30;1.20;;;;;;;20.82;31.32;101090.16;4547653;27;20041;-60
2023/04/27 07:23:45;;;;;;;1.30;1.20;;;;;;;20.84;32.51;101096.38;4568283;27;20039;-60
2023/04/27 07:25:56;;;;;;;1.02;0.93;;;;;;;20.82;31.76;101087.28;4569014;27;20868;-60
2023/04/27 07:28:07;;;;;;;1.23;0.90;;;;;;;20.76;28.81;101080.94;4570510;27;20039;-60
2023/04/27 07:30:18;;;;;;;1.17;1.05;;;;;;;20.78;31.25;101075.72;4568648;27;20023;-59
2023/04/27 07:32:29;;;;;;;1.50;1.10;;;;;;;20.79;32.12;101083.09;4568440;27;20087;-59
2023/04/27 07:34:40;;;;;;;1.17;1.00;;;;;;;20.85;32.64;101085.75;4568613;27;20036;-60
2023/04/27 07:36:53;;;;;;;1.10;1.00;;;;;;;20.83;31.64;101080.38;4567462;27;20043;-60
2023/04/27 07:39:03;;;;;;;1.20;0.95;;;;;;;20.85;32.77;101083.72;4566301;27;20618;-59
2023/04/27 07:41:14;;;;;;;1.30;1.20;;;;;;;20.85;32.34;101080.84;4566736;27;20082;-59
2023/04/27 07:43:25;;;;;;;1.23;1.10;;;;;;;20.83;31.58;101084.06;4550865;27;20381;-59
2023/04/27 07:45:38;;;;;;;1.38;1.13;;;;;;;20.83;32.00;101078.31;4567470;27;20028;-60
2023/04/27 07:47:48;;;;;;;1.23;1.00;;;;;;;20.84;32.41;101067.69;4567238;27;20139;-60
2023/04/27 07:49:59;;;;;;;1.17;1.08;;;;;;;20.83;32.27;101070.91;4551458;27;20626;-60
2023/04/27 07:52:10;;;;;;;1.20;1.10;;;;;;;20.80;31.07;101061.00;4549114;27;20778;-60
2023/04/27 07:54:20;;;;;;;0.80;0.75;;;;;;;20.84;31.24;101070.56;4565521;27;20913;-59
2023/04/27 07:56:31;;;;;;;0.95;0.95;;;;;;;20.84;31.76;101067.69;4565901;27;20024;-59
2023/04/27 07:58:42;;;;;;;0.95;0.90;;;;;;;20.83;31.19;101062.31;4566078;27;20036;-59
2023/04/27 08:00:52;;;;;;;1.58;1.00;;;;;;;20.83;30.82;101056.56;4568579;27;20044;-60
2023/04/27 08:03:03;;;;;;;1.10;0.98;;;;;;;20.80;28.84;101061.00;4569235;27;20191;-60
2023/04/27 08:05:13;;;;;;;1.00;0.90;;;;;;;20.82;27.65;101069.25;4567452;27;20041;-61
2023/04/27 08:07:24;;;;;;;1.30;0.80;;;;;;;20.86;27.22;101071.03;4567653;27;20556;-61
2023/04/27 08:09:34;;;;;;;1.27;0.95;;;;;;;20.86;26.96;101067.31;4566195;27;20028;-61
2023/04/27 08:11:45;;;;;;;0.93;0.80;;;;;;;20.80;26.10;101061.00;4569461;27;20435;-60
2023/04/27 08:13:55;;;;;;;1.30;1.08;;;;;;;20.83;26.37;101062.31;4566683;27;20043;-59
2023/04/27 08:16:06;;;;;;;1.13;0.82;;;;;;;20.85;26.68;101060.78;4565771;27;20055;-59
2023/04/27 08:18:16;;;;;;;1.08;0.80;;;;;;;20.84;26.37;101064.81;4568817;27;20071;-59
2023/04/27 08:20:27;;;;;;;1.00;0.90;;;;;;;20.78;26.01;101052.75;4565929;27;20486;-59
2023/04/27 08:22:39;;;;;;;2.00;1.10;;;;;;;20.86;26.42;101059.56;4567793;27;20059;-59
2023/04/27 08:24:49;;;;;;;0.90;0.80;;;;;;;20.86;26.04;101065.31;4549509;27;20032;-59
2023/04/27 08:27:00;;;;;;;1.00;0.90;;;;;;;20.86;25.78;101062.44;4566155;27;20403;-59
2023/04/27 08:29:10;;;;;;;1.00;0.90;;;;;;;20.83;25.71;101063.16;4567376;27;20046;-59
2023/04/27 08:31:21;;;;;;;1.45;1.00;;;;;;;20.86;25.28;101073.91;4565932;27;20025;-59
2023/04/27 08:33:32;;;;;;;1.73;1.08;;;;;;;20.86;25.31;101065.31;4566530;27;20093;-60
2023/04/27 08:35:42;;;;;;;1.55;0.90;;;;;;;20.88;25.35;101071.53;4567527;27;20063;-59
2023/04/27 08:37:53;;;;;;;1.58;0.80;;;;;;;20.81;25.99;101059.78;4566864;27;20143;-59
2023/04/27 08:40:07;;;;;;;1.25;0.90;;;;;;;20.89;25.65;101064.59;4566871;27;20365;-59
2023/04/27 08:42:17;;;;;;;1.02;0.90;;;;;;;20.87;25.30;101060.41;4565820;27;20040;-59
2023/04/27 08:44:28;;;;;;;0.95;0.88;;;;;;;20.89;25.13;101061.72;4551828;27;20032;-59
2023/04/27 08:46:39;;;;;;;0.88;0.88;;;;;;;20.90;25.10;101066.25;4550376;27;20068;-59
2023/04/27 08:48:51;;;;;;;1.00;0.80;;;;;;;20.85;24.99;101052.16;4568890;27;20626;-59
2023/04/27 08:51:02;;;;;;;1.23;0.70;;;;;;;20.90;24.98;101066.25;4569334;27;20077;-60
2023/04/27 08:53:21;;;;;;;0.77;0.75;;;;;;;20.90;24.67;101059.69;4550433;28;20017;-59
2023/04/27 08:55:31;;;;;;;0.88;0.80;;;;;;;20.91;24.86;101062.19;4567055;27;20035;-59
2023/04/27 08:57:52;;;;;;;0.80;0.70;;;;;;;20.90;24.74;101059.69;4539585;27;20021;-59
2023/04/27 09:00:13;;;;;;;0.80;0.80;;;;;;;20.92;24.81;101063.88;4567759;27;20097;-59
2023/04/27 09:02:26;;;;;;;0.90;0.70;;;;;;;20.90;24.05;101051.09;4565836;27;20105;-59
2023/04/27 09:04:40;;;;;;;0.82;0.70;;;;;;;20.90;23.89;101057.63;4568007;27;20606;-59
2023/04/27 09:06:51;;;;;;;0.80;0.80;;;;;;;20.90;24.13;101054.78;4569341;27;20055;-58
2023/04/27 09:09:02;;;;;;;0.70;0.70;;;;;;;20.93;24.53;101056.91;4565897;27;20051;-59
2023/04/27 09:11:32;;;;;;;0.77;0.77;;;;;;;20.93;24.98;101059.78;4568855;27;20089;-59
2023/04/27 09:13:44;;;;;;;0.90;0.90;;;;;;;20.94;25.62;101058.63;4566386;27;20037;-59
2023/04/27 09:15:54;;;;;;;1.10;0.90;;;;;;;20.94;24.79;101057.75;4549006;27;20543;-59
2023/04/27 09:18:05;;;;;;;0.77;0.77;;;;;;;20.91;24.13;101047.00;4568645;27;20040;-59
2023/04/27 09:20:17;;;;;;;0.80;0.80;;;;;;;20.88;24.02;101050.59;4566486;27;20039;-59
2023/04/27 09:22:28;;;;;;;1.10;0.80;;;;;;;20.93;23.81;101054.03;4567424;27;20038;-59
2023/04/27 09:24:49;;;;;;;1.17;0.93;;;;;;;20.93;23.32;101054.03;4549903;27;20499;-59
2023/04/27 09:27:00;;;;;;;1.70;1.10;;;;;;;20.93;22.96;101051.19;4567351;27;20037;-59
2023/04/27 09:29:11;;;;;;;1.05;0.80;;;;;;;20.94;23.57;101055.75;4567897;27;20036;-59
2023/04/27 09:31:21;;;;;;;0.88;0.80;;;;;;;20.90;23.94;101048.22;4567004;27;20052;-59
2023/04/27 09:33:33;;;;;;;0.93;0.80;;;;;;;20.96;24.26;101047.66;4568574;27;20031;-59
2023/04/27 09:35:44;;;;;;;0.93;0.82;;;;;;;20.98;24.68;101061.63;4568902;27;20060;-60
2023/04/27 09:37:55;;;;;;;0.98;0.90;;;;;;;20.90;24.22;101046.16;4575921;27;20033;-59
2023/04/27 09:40:06;;;;;;;0.80;0.80;;;;;;;20.92;23.38;101040.91;4569826;27;20991;-59
2023/04/27 09:42:17;;;;;;;1.10;1.00;;;;;;;20.98;23.38;101068.19;4570267;27;20031;-59
2023/04/27 09:44:29;;;;;;;1.00;0.90;;;;;;;20.97;23.10;101059.94;4571767;27;20679;-59
2023/04/27 09:46:42;;;;;;;0.80;0.80;;;;;;;20.97;22.25;101055.06;4555808;27;20119;-59
2023/04/27 09:48:54;;;;;;;1.42;0.90;;;;;;;20.93;22.35;101036.81;4570914;27;20040;-59
2023/04/27 09:51:04;;;;;;;1.10;1.00;;;;;;;20.99;23.02;101052.66;4573073;27;20032;-59
2023/04/27 09:53:22;;;;;;;1.30;1.10;;;;;;;21.00;22.51;101047.75;4569072;27;20517;-59
2023/04/27 09:55:40;;;;;;;0.88;0.88;;;;;;;20.98;22.10;101048.09;4573056;27;20091;-58
2023/04/27 09:58:19;;;;;;;1.33;0.93;;;;;;;21.00;21.52;101048.59;4569341;27;20036;-59
2023/04/27 10:01:02;;;;;;;1.17;1.08;;;;;;;21.01;22.11;101046.56;4569276;27;20036;-59
2023/04/27 10:04:02;;;;;;;1.65;1.00;;;;;;;21.00;22.33;101042.00;4569848;27;20106;-58
2023/04/27 10:06:31;;;;;;;0.90;0.90;;;;;;;20.98;22.05;101028.00;4530770;27;20036;-59
2023/04/27 10:08:42;;;;;;;1.20;1.10;;;;;;;21.02;22.26;101028.13;4534952;27;20741;-59
2023/04/27 10:10:53;;;;;;;1.13;1.02;;;;;;;21.03;22.48;101024.91;4554715;27;20029;-60